Latest Weather Observations for Territory Grape Farm

IDD60801

Issued at 6:51 pm CST Tuesday 23 October 2018 (issued every 10 minutes, with the page automatically refreshed every 10 minutes)

About weather observations | Map of weather stations | Latest weather observations for NT | Other Formats
Station Details ID: 015643 Name: TERRITORY GRAPE FARM Lat: -22.45 Lon: 133.64 Height: 565.6 m
Data from the previous 72 hours. | See also: Recent months at Territory Grape Farm
Date/Time
CST
Temp
°C
App
Temp
°C
Dew
Point
°C
Rel
Hum
%
Delta-T
°C
Wind Press
QNH
hPa
Press
MSL
hPa
Rain since
9am
mm
Dir  Spd
km/h
Gust
km/h
Spd
kts
Gust
kts
23/06:30pm 34.3 30.4 -4.6 8 18.2 ENE 7 9 4 5 1011.0 1007.7 0.0
23/06:00pm 36.9 33.6 -4.5 7 19.8 WNW 4 7 2 4 1010.9 1007.6 0.0
23/05:30pm 38.1 34.5 -3.7 7 20.4 WNW 6 9 3 5 1010.9 1007.6 0.0
23/05:00pm 37.1 33.4 -4.4 7 19.9 NNW 6 15 3 8 1010.7 1007.4 0.0
23/04:30pm 37.8 34.2 -3.9 7 20.2 W 6 11 3 6 1010.7 1007.4 0.0
23/04:00pm 38.4 34.4 -5.5 6 20.8 SE 7 20 4 11 1010.8 1007.5 0.0
23/03:30pm 37.8 33.2 -3.9 7 20.2 NNW 11 24 6 13 1010.9 1007.6 0.0
23/03:00pm 38.3 33.8 -3.5 7 20.5 NNE 11 22 6 12 1011.1 1007.8 0.0
23/02:30pm 37.9 33.9 -5.8 6 20.6 SE 7 11 4 6 1011.6 1008.3 0.0
23/02:00pm 38.4 34.0 -5.5 6 20.8 WNW 9 28 5 15 1011.7 1008.4 0.0
23/01:30pm 38.5 32.8 -3.4 7 20.6 N 17 33 9 18 1012.2 1009.0 0.0
23/01:00pm 37.2 32.6 -4.3 7 19.9 N 11 20 6 11 1012.8 1009.5 0.0
23/12:30pm 36.4 30.6 -4.9 7 19.5 NNW 17 32 9 17 1013.2 1009.9 0.0
23/12:00pm 37.1 31.3 -4.4 7 19.9 NW 17 33 9 18 1013.7 1010.5 0.0
23/11:30am 36.4 30.0 -4.9 7 19.5 N 20 39 11 21 1014.2 1011.0 0.0
23/11:00am 35.8 29.2 -7.3 6 19.5 N 20 32 11 17 1014.8 1011.5 0.0
23/10:30am 34.8 28.3 -8.0 6 19.0 NNE 19 30 10 16 1015.0 1011.7 0.0
23/10:00am 32.9 27.6 -7.4 7 17.8 NNE 13 19 7 10 1015.4 1012.2 0.0
23/09:30am 31.7 27.1 -8.3 7 17.2 NNE 9 17 5 9 1015.6 1012.4 0.0
23/09:00am 29.6 24.6 -8.1 8 16.0 NE 11 19 6 10 1015.8 1012.6 0.0
23/08:30am 27.6 23.0 -8.1 9 14.9 NE 9 13 5 7 1015.5 1012.3 0.0
23/08:00am 26.4 22.8 -7.6 10 14.2 N 4 6 2 3 1015.3 1012.1 0.0
23/07:30am 23.1 20.4 -5.8 14 12.1 CALM 0 0 0 0 1015.1 1011.9 0.0
23/07:00am 19.7 16.8 -4.5 19 10.0 WSW 2 4 1 2 1014.8 1011.5 0.0
23/06:30am 16.4 13.0 -5.3 22 8.6 WSW 4 6 2 3 1014.2 1011.0 0.0
23/06:00am 15.9 12.4 -5.8 22 8.4 W 4 6 2 3 1013.7 1010.5 0.0
23/05:30am 16.4 13.3 -6.6 20 8.8 SE 2 2 1 1 1013.2 1009.9 0.0
23/05:00am 18.9 15.5 -5.2 19 9.8 SSE 4 6 2 3 1012.8 1009.5 0.0
23/04:30am 18.2 14.7 -5.8 19 9.6 S 4 6 2 3 1012.4 1009.2 0.0
23/04:00am 19.6 15.8 -5.3 18 10.2 SE 6 6 3 3 1012.2 1009.0 0.0
23/03:30am 20.3 16.9 -5.5 17 10.6 S 4 4 2 2 1012.0 1008.8 0.0
23/03:00am 20.2 16.1 -6.4 16 10.7 ENE 7 7 4 4 1011.9 1008.7 0.0
23/02:30am 21.9 17.4 -6.8 14 11.6 ENE 9 9 5 5 1012.0 1008.8 0.0
23/02:00am 23.9 19.1 -6.2 13 12.6 ENE 11 13 6 7 1012.3 1009.1 0.0
23/01:30am 25.3 20.1 -6.1 12 13.3 E 13 17 7 9 1012.6 1009.3 0.0
23/01:00am 26.6 21.0 -6.2 11 14.0 E 15 20 8 11 1012.9 1009.6 0.0
23/12:30am 25.5 20.7 -6.0 12 13.4 ESE 11 15 6 8 1013.0 1009.7 0.0
23/12:00am 26.4 20.9 -5.3 12 13.8 E 15 19 8 10 1013.0 1009.7 0.0
 
Date/Time
CST
Temp
°C
App
Temp
°C
Dew
Point
°C
Rel
Hum
%
Delta-T
°C
Wind Press
QNH
hPa
Press
MSL
hPa
Rain since
9am
mm
Dir  Spd
km/h
Gust
km/h
Spd
kts
Gust
kts
22/11:30pm 27.0 21.8 -5.9 11 14.2 ESE 13 15 7 8 1013.3 1010.0 0.0
22/11:00pm 28.8 23.6 -5.8 10 15.2 ESE 13 17 7 9 1013.3 1010.0 0.0
22/10:30pm 30.3 25.0 -3.4 11 15.6 SE 15 30 8 16 1013.0 1009.7 0.0
22/10:00pm 29.9 26.4 -1.5 13 15.0 SW 7 11 4 6 1012.7 1009.4 0.0
22/09:30pm 30.0 26.3 -2.5 12 15.3 SE 7 11 4 6 1012.4 1009.2 0.0
22/09:00pm 31.2 27.7 -1.5 12 15.8 SSE 7 9 4 5 1012.1 1008.9 0.0
22/08:30pm 30.3 27.4 -1.2 13 15.2 SSE 4 6 2 3 1011.8 1008.5 0.0
22/08:00pm 30.6 27.6 -2.0 12 15.5 SSW 4 6 2 3 1011.6 1008.3 0.0
22/07:30pm 31.7 28.5 -3.6 10 16.5 SSW 4 4 2 2 1011.3 1008.0 0.0
22/07:00pm 32.7 29.9 -2.9 10 16.9 SW 2 6 1 3 1011.0 1007.7 0.0
22/06:30pm 34.6 31.5 -2.9 9 18.1 W 4 9 2 5 1010.7 1007.4 0.0
22/06:00pm 36.0 32.2 -3.4 8 19.1 W 7 15 4 8 1010.3 1007.1 0.0
22/05:30pm 36.3 32.8 -3.2 8 19.2 NNE 6 11 3 6 1010.1 1006.8 0.0
22/05:00pm 37.4 32.6 -2.4 8 19.7 W 13 22 7 12 1010.1 1006.8 0.0
22/04:30pm 38.0 32.9 -1.9 8 20.0 WNW 15 26 8 14 1010.1 1006.8 0.0
22/04:00pm 36.4 32.9 -3.1 8 19.2 NW 6 11 3 6 1010.3 1007.1 0.0
22/03:30pm 37.5 31.8 -4.1 7 20.1 WSW 17 26 9 14 1010.7 1007.4 0.0
22/03:00pm 38.0 32.7 -3.7 7 20.3 NW 15 26 8 14 1011.0 1007.7 0.0
22/02:30pm 38.0 33.1 -3.7 7 20.3 WNW 13 30 7 16 1011.4 1008.1 0.0
22/02:00pm 38.0 31.7 -3.7 7 20.3 WNW 20 37 11 20 1011.8 1008.5 0.0
22/01:30pm 36.5 30.7 -4.8 7 19.6 NNW 17 22 9 12 1012.4 1009.2 0.0
22/01:00pm 36.8 32.2 -1.2 9 19.1 NNW 13 24 7 13 1013.1 1009.8 0.0
22/12:30pm 35.6 31.2 -2.1 9 18.5 N 11 22 6 12 1013.6 1010.4 0.0
22/12:00pm 35.8 30.5 -3.5 8 18.9 NNE 15 30 8 16 1014.4 1011.1 0.0
22/11:30am 35.4 30.6 -2.3 9 18.4 N 13 20 7 11 1015.0 1011.7 0.0
22/11:00am 33.8 29.1 -5.0 8 18.0 NNE 11 22 6 12 1015.5 1012.3 0.0
22/10:30am 32.0 26.4 -6.3 8 17.1 NE 15 22 8 12 1015.8 1012.6 0.0
22/10:00am 31.3 25.3 -6.8 8 16.8 ENE 17 26 9 14 1016.1 1012.9 0.0
22/09:30am 30.2 23.7 -7.7 8 16.3 ENE 19 24 10 13 1016.3 1013.0 0.0
22/09:00am 29.3 23.3 -6.8 9 15.6 ENE 17 20 9 11 1016.6 1013.3 0.0
22/08:30am 27.6 21.2 -6.7 10 14.7 ENE 19 22 10 12 1016.5 1013.2 0.0
22/08:00am 25.8 20.5 -6.9 11 13.7 E 13 19 7 10 1016.1 1012.9 0.0
22/07:30am 23.9 18.3 -6.2 13 12.6 E 15 19 8 10 1016.0 1012.8 0.0
22/07:00am 20.8 16.9 -5.1 17 10.7 ESE 7 11 4 6 1015.7 1012.5 0.0
22/06:30am 17.5 13.5 -5.7 20 9.2 SE 7 9 4 5 1015.2 1012.0 0.0
22/06:00am 16.9 13.2 -4.3 23 8.6 SE 6 6 3 3 1014.8 1011.5 0.0
22/05:30am 16.3 13.0 -4.8 23 8.4 SSE 4 6 2 3 1014.6 1011.3 0.0
22/05:00am 17.1 13.4 -4.8 22 8.8 ESE 6 7 3 4 1014.4 1011.1 0.0
22/04:30am 17.7 13.8 -4.9 21 9.1 SSE 7 9 4 5 1014.4 1011.1 0.0
22/04:00am 18.4 14.6 -3.7 22 9.2 SE 7 7 4 4 1014.0 1010.8 0.0
22/03:30am 17.3 14.2 -2.9 25 8.5 ESE 4 4 2 2 1013.8 1010.6 0.0
22/03:00am 17.6 14.3 -4.3 22 8.9 ESE 4 4 2 2 1013.9 1010.7 0.0
22/02:30am 18.9 15.3 -3.9 21 9.5 ESE 6 6 3 3 1013.9 1010.7 0.0
22/02:00am 19.1 14.8 -4.4 20 9.7 ESE 9 9 5 5 1014.0 1010.8 0.0
22/01:30am 20.9 16.7 -4.3 18 10.6 ESE 9 13 5 7 1014.2 1011.0 0.0
22/01:00am 21.6 17.0 -3.7 18 10.9 ESE 11 15 6 8 1014.6 1011.3 0.0
22/12:30am 22.7 18.3 -2.8 18 11.2 ESE 11 15 6 8 1014.8 1011.5 0.0
22/12:00am 23.2 18.9 -1.7 19 11.3 ESE 11 15 6 8 1015.1 1011.9 0.0
 
Date/Time
CST
Temp
°C
App
Temp
°C
Dew
Point
°C
Rel
Hum
%
Delta-T
°C
Wind Press
QNH
hPa
Press
MSL
hPa
Rain since
9am
mm
Dir  Spd
km/h
Gust
km/h
Spd
kts
Gust
kts
21/11:30pm 24.3 19.7 -0.8 19 11.6 ESE 13 15 7 8 1015.3 1012.1 0.0
21/11:00pm 23.4 19.6 -0.8 20 11.2 ENE 9 9 5 5 1015.2 1012.0 0.0
21/10:30pm 24.6 20.8 -0.5 19 11.7 NE 9 11 5 6 1015.2 1012.0 0.0
21/10:00pm 25.4 21.4 0.8 20 11.9 NE 11 15 6 8 1015.2 1012.0 0.0
21/09:30pm 24.1 20.9 -0.2 20 11.4 NE 6 7 3 4 1015.1 1011.9 0.0
21/09:00pm 24.7 21.3 -0.4 19 11.8 NE 7 9 4 5 1014.9 1011.6 0.0
21/08:30pm 25.4 22.2 -0.6 18 12.2 NNE 6 6 3 3 1014.8 1011.5 0.0
21/08:00pm 26.7 23.4 -1.2 16 13.1 NE 6 7 3 4 1014.7 1011.4 0.0
21/07:30pm 28.5 25.3 -0.6 15 14.0 NE 6 6 3 3 1014.2 1011.0 0.0
21/07:00pm 29.5 26.3 -0.8 14 14.6 NNE 6 7 3 4 1014.1 1010.9 0.0
21/06:30pm 31.3 28.5 -0.4 13 15.6 NW 4 4 2 2 1013.9 1010.7 0.0
21/06:00pm 32.8 29.4 -0.3 12 16.5 NW 7 9 4 5 1013.7 1010.5 0.0
21/05:30pm 33.5 30.2 -1.0 11 17.0 WNW 6 13 3 7 1013.5 1010.3 0.0
21/05:00pm 33.3 29.5 -1.1 11 16.9 WNW 9 13 5 7 1013.4 1010.1 0.0
21/04:30pm 33.1 28.8 -1.3 11 16.9 N 11 15 6 8 1013.4 1010.1 0.0
21/04:00pm 33.1 29.8 -1.3 11 16.9 NNE 6 13 3 7 1013.6 1010.4 0.0
21/03:30pm 33.4 29.9 -1.0 11 17.0 NNW 7 17 4 9 1013.9 1010.7 0.0
21/03:00pm 33.1 30.0 -0.1 12 16.6 WSW 6 13 3 7 1014.2 1011.0 0.0
21/02:30pm 31.7 28.4 -1.2 12 16.0 ENE 6 13 3 7 1015.0 1011.7 0.0
21/02:00pm 31.2 27.4 -0.5 13 15.5 ENE 9 17 5 9 1015.4 1012.2 0.0
21/01:30pm 30.7 26.0 -1.9 12 15.5 E 13 22 7 12 1015.9 1012.7 0.0
21/01:00pm 30.3 26.8 -1.2 13 15.2 NE 7 15 4 8 1016.6 1013.3 0.0
21/12:30pm 29.8 25.5 -1.5 13 14.9 NE 11 20 6 11 1017.2 1014.0 0.0
21/12:00pm 28.5 24.2 -1.6 14 14.2 ESE 11 19 6 10 1017.8 1014.6 0.0
21/11:30am 28.7 24.4 -1.4 14 14.3 ENE 11 26 6 14 1018.5 1015.3 0.0
21/11:00am 27.2 22.0 -2.6 14 13.7 ESE 15 24 8 13 1019.0 1015.8 0.0
21/10:30am 26.3 21.1 -2.4 15 13.1 ENE 15 22 8 12 1019.6 1016.4 0.0
21/10:00am 25.3 20.2 -2.3 16 12.6 E 15 24 8 13 1020.2 1017.0 0.0
21/09:30am 25.1 19.8 -0.9 18 12.1 E 17 24 9 13 1020.4 1017.2 0.0
21/09:00am 23.7 18.3 -1.3 19 11.4 E 17 24 9 13 1020.5 1017.3 0.0
21/08:30am 21.9 15.8 -2.0 20 10.6 ESE 20 26 11 14 1020.3 1017.1 0.0
21/08:00am 21.0 14.5 -2.1 21 10.2 E 22 30 12 16 1019.9 1016.8 0.0
21/07:30am 19.9 14.7 -2.4 22 9.7 E 15 24 8 13 1019.4 1016.2 0.0
21/07:00am 18.4 13.5 -3.1 23 9.1 E 13 19 7 10 1019.0 1015.8 0.0
21/06:30am 17.1 12.6 -3.1 25 8.4 SE 11 17 6 9 1018.5 1015.3 0.0
21/06:00am 15.7 11.5 -3.7 26 7.9 SE 9 13 5 7 1018.3 1015.1 0.0
21/05:30am 15.2 11.1 -3.2 28 7.5 SE 9 11 5 6 1017.9 1014.7 0.0
21/05:00am 15.2 11.1 -3.2 28 7.5 ESE 9 11 5 6 1017.4 1014.2 0.0
21/04:30am 15.2 11.4 -3.6 27 7.6 ESE 7 7 4 4 1017.2 1014.0 0.0
21/04:00am 16.2 12.5 -3.3 26 8.0 ESE 7 9 4 5 1016.9 1013.7 0.0
21/03:30am 16.4 12.3 -3.1 26 8.1 ESE 9 9 5 5 1016.8 1013.6 0.0
21/03:00am 17.8 13.7 -3.0 24 8.7 ESE 9 11 5 6 1016.6 1013.3 0.0
21/02:30am 18.8 14.7 -2.7 23 9.2 SE 9 13 5 7 1016.7 1013.5 0.0
21/02:00am 19.1 14.8 -1.4 25 9.0 SE 11 13 6 7 1016.9 1013.7 0.0
21/01:30am 17.9 14.2 0.1 30 8.0 SE 9 11 5 6 1017.2 1014.0 0.0
21/01:00am 18.6 14.7 1.2 31 8.0 SE 11 13 6 7 1017.7 1014.5 0.0
21/12:30am 20.5 17.0 1.4 28 9.0 SE 9 13 5 7 1018.2 1014.9 0.0
21/12:00am 21.1 17.3 1.9 28 9.1 ESE 11 13 6 7 1018.4 1015.2 0.0
 
Date/Time
CST
Temp
°C
App
Temp
°C
Dew
Point
°C
Rel
Hum
%
Delta-T
°C
Wind Press
QNH
hPa
Press
MSL
hPa
Rain since
9am
mm
Dir  Spd
km/h
Gust
km/h
Spd
kts
Gust
kts
20/11:30pm 21.3 17.9 2.1 28 9.2 ESE 9 13 5 7 1018.7 1015.5 0.0
20/11:00pm 22.1 18.8 2.2 27 9.6 ESE 9 13 5 7 1018.9 1015.7 0.0
20/10:30pm 23.4 19.7 2.3 25 10.3 SE 11 15 6 8 1019.0 1015.8 0.0
20/10:00pm 24.3 20.2 2.5 24 10.8 ESE 13 19 7 10 1018.9 1015.7 0.0
20/09:30pm 25.1 20.8 3.1 24 11.0 SE 15 20 8 11 1018.8 1015.6 0.0
20/09:00pm 26.1 21.1 3.4 23 11.5 ESE 19 26 10 14 1018.6 1015.4 0.0
20/08:30pm 27.2 22.2 3.7 22 12.1 ESE 19 28 10 15 1018.0 1014.8 0.0
20/08:00pm 27.6 23.1 4.0 22 12.2 SE 17 24 9 13 1017.4 1014.2 0.0
20/07:30pm 28.4 24.5 5.3 23 12.3 SE 15 22 8 12 1016.7 1013.5 0.0
20/07:00pm 29.5 24.9 5.6 22 12.9 ESE 19 28 10 15 1016.0 1012.8 0.0

Other Formats:

Comma delimited format used in spreadsheet applications
http://www.bom.gov.au/fwo/IDD60801/IDD60801.94328.axf

JavaScript Object Notation format (JSON) in row-major order
http://www.bom.gov.au/fwo/IDD60801/IDD60801.94328.json